Terminal Aerodrome Forecast
Issued by NWS St Louis, MO

Home | Current Version | Previous Version | Text Only | Print | Product List | Glossary On
Versions: 1 2 3 4 5 6 7 8 9 10 11 12 13 14 15 16 17 18 19 20 21 22 23 24 25 26
288
FTUS43 KLSX 232106 AAC
TAFSTL
TAF AMD
KSTL 232106Z 2321/2424 17010KT P6SM VCTS SCT020CB BKN050
      TEMPO 2321/2401 BKN020CB
     FM240100 16009KT P6SM SCT025 BKN080
     FM240700 16008KT P6SM VCTS SCT030CB OVC060
     FM241100 17009KT P6SM SCT050 BKN080
     FM241800 22011KT P6SM SCT040 BKN250=

USA.gov is the U.S. government's official web portal to all federal, state and local government web resources and services.